Detalii statie CORIPLANT MIHALT [0000197B]

Toti senzorii

Date Temperatura solului [C]Precipitatii [mm]Voltaj baterie [mV]Leaf Wetness [Min]HC Air temperature [C]HC Relative humidity [%]Punctul de roua [C]
medieminmaxsumaultimatimpmedieminmaxmediemediemin
2017-12-10 21:00:00 -4.8 -5.1 -4.6 0 6884 -3.78 -3.98 -3.38 100 -3.6 -3.8
2017-12-10 22:00:00 -4.9 -5.2 -4.3 0 6874 -4.35 -4.64 -4.09 100 -4.2 -4.5
2017-12-10 23:00:00 -3.9 -4.2 -3.8 0 6854 -3.82 -4.2 -3.54 100 -3.6 -4.1
2017-12-11 00:00:00 -3.8 -4.1 -3.4 0 6854 -3.46 -3.66 -3.32 100 -3.3 -3.5
2017-12-11 01:00:00 -4.2 -4.4 -4.2 0 6834 -3.76 -3.87 -3.62 100 -3.6 -3.7
2017-12-11 02:00:00 -3.5 -4.1 -3.1 0 6826 -3.13 -3.63 -2.73 100 -2.9 -3.5
2017-12-11 03:00:00 -3.7 -4.1 -3.4 0 6826 -3.27 -3.6 -3.07 100 -3.1 -3.5
2017-12-11 04:00:00 -4.2 -4.4 -4.1 0 6826 -3.74 -3.93 -3.56 100 -3.6 -3.8
2017-12-11 05:00:00 -4.3 -4.6 -4.1 0 6806 -3.77 -3.93 -3.62 100 -3.6 -3.8
2017-12-11 06:00:00 -3.9 -4.7 -3.4 0 6816 -3.55 -4.15 -2.97 100 -3.4 -4
2017-12-11 07:00:00 -2.8 -3.3 -2.5 0 6796 -2.53 -2.85 -2.25 100 -2.3 -2.7
2017-12-11 08:00:00 -2.4 -2.8 -2.3 0 6786 -2.13 -2.33 -2.02 100 -2 -2.2
2017-12-11 09:00:00 -2.2 -2.7 -1.8 0 6854 -1.8 -2.01 -1.52 100 -1.6 -1.9
2017-12-11 10:00:00 -1 -1.8 -0.7 0 7060 -0.91 -1.48 -0.35 100 -0.7 -1.3
2017-12-11 11:00:00 -0.3 -0.5 -0.1 0 7176 0 -0.25 0.18 100 0 -0.1
2017-12-11 12:00:00 0.7 -0.3 2.5 0 7216 0.79 0.13 1.76 100 0.7 0.1
2017-12-11 13:00:00 3.5 1.9 5.8 0 7226 2.92 1.97 4.47 100 2.9 1.9
2017-12-11 14:00:00 7.1 5.6 9.6 0.2 7176 5.45 5.02 6.45 100 5.4 5
2017-12-11 15:00:00 4.7 4 5.6 0 7216 5.67 5.04 6.61 100 5.6 5
2017-12-11 16:00:00 3.2 2.4 3.9 0 7128 5.4 4.42 6.64 100 5.3 4.4
2017-12-11 17:00:00 1 0.2 2.3 0 7020 2.49 1.72 4.09 100 2.4 1.7
2017-12-11 18:00:00 -0.6 -1.1 0.3 0 6982 0.85 0.38 1.94 100 0.8 0.3
2017-12-11 19:00:00 -1.1 -1.4 -0.9 0 6962 0.07 -0.43 0.41 100 0 -0.3
2017-12-11 20:00:00 -0.7 -1.2 -0.5 0 6914 0.55 -0.15 0.99 100 0.5 0
2017-12-11 21:00:00 -0.9 -1.2 -0.7 0 6904 0.06 -0.38 0.55 100 0 -0.2
2017-12-11 22:00:00 -1 -1.2 -0.7 0 6894 0.18 -0.4 0.62 100 0.1 -0.3
2017-12-11 23:00:00 -1.1 -1.5 -1 0 6884 -0.2 -0.5 -0.02 100 0 -0.4
2017-12-12 00:00:00 -1.3 -1.4 -1.2 0 6874 -0.6 -0.77 -0.43 100 -0.4 -0.6
2017-12-12 01:00:00 -1.4 -1.6 -1.2 0 6864 -0.69 -0.84 -0.49 100 -0.5 -0.7
2017-12-12 02:00:00 -1.7 -2 -1.6 0 6864 -1.19 -1.43 -0.85 100 -1 -1.3
2017-12-12 03:00:00 -1.8 -2 -1.7 0 6854 -1.38 -1.65 -1.13 100 -1.2 -1.5
2017-12-12 04:00:00 -2 -2.2 -1.9 0 6854 -1.35 -1.65 -1.12 100 -1.2 -1.5
2017-12-12 05:00:00 -2 -2.1 -1.8 0 6834 -1.46 -1.76 -1.23 100 -1.3 -1.6
2017-12-12 06:00:00 -2.2 -2.7 -1.8 0 6834 -1.73 -2.1 -1.3 100 -1.5 -2
2017-12-12 07:00:00 -2.2 -2.4 -2 0 6834 -1.61 -1.96 -1.17 100 -1.4 -1.8
2017-12-12 08:00:00 -2.1 -2.5 -1.8 0 6796 -1.42 -1.64 -1.08 100 -1.2 -1.5
2017-12-12 09:00:00 -1.7 -2.2 -1.1 0 6844 -1.18 -1.77 -0.75 100 -1 -1.6
2017-12-12 10:00:00 -0.5 -1.1 -0.1 0 7050 -0.31 -0.72 0.05 100 -0.2 -0.6
2017-12-12 11:00:00 0.5 -0.2 1.3 0 7196 0.73 0.12 1.75 100 0.6 0.1
2017-12-12 12:00:00 2.5 1.4 3.8 0 7206 2.66 1.91 3.42 100 2.6 1.9
2017-12-12 13:00:00 5.6 4.5 7.5 0 7206 5.51 3.99 6.42 100 5.4 3.9
2017-12-12 14:00:00 11.5 8.5 13.1 0 7216 7.74 6.76 8.91 100 7.6 6.7
2017-12-12 15:00:00 9.1 6.8 14 0 7206 9.99 9.22 11.16 100 9.9 9.2
2017-12-12 16:00:00 6 5.6 6.5 0 7098 8.84 8.16 9.36 100 8.7 8.1
2017-12-12 17:00:00 3.9 2.8 5.5 0 6992 6.15 5.25 7.78 100 6 5.2
2017-12-12 18:00:00 1.9 1.1 2.6 0 6962 4.52 3.34 5.27 100 4.4 3.3
2017-12-12 19:00:00 0.6 0.1 1.1 0 6942 3.13 2.35 3.73 100 3 2.3